Time;durP1;ratioP1;P1;durP2;ratioP2;P2;SDS_P1;SDS_P2;PMS_P1;PMS_P2;Temp;Humidity;BMP_temperature;BMP_pressure;BME280_temperature;BME280_humidity;BME280_pressure;Samples;Min_cycle;Max_cycle;Signal;HPM_P1;HPM_P2
2023/06/26 07:23:22;;;;;;;7.68;3.45;;;;;;;-145.79;56.62;76739.31;5322202;27;20725;-69
2023/06/26 07:25:53;;;;;;;7.05;2.95;;;;;;;-145.79;57.31;76749.91;5321961;28;20043;-69
2023/06/26 07:28:24;;;;;;;7.38;3.30;;;;;;;-145.79;57.23;76771.09;5321402;28;20032;-68
2023/06/26 07:30:56;;;;;;;6.63;3.42;;;;;;;-145.79;57.31;76790.19;5322318;28;20024;-69
2023/06/26 07:33:27;;;;;;;5.55;2.75;;;;;;;-145.79;57.51;76775.34;5319003;28;20107;-69
2023/06/26 07:35:59;;;;;;;8.27;3.00;;;;;;;-145.79;57.41;76766.88;5320401;28;20043;-68
2023/06/26 07:38:30;;;;;;;6.88;3.00;;;;;;;-145.79;57.03;76773.22;5300675;28;20410;-68
2023/06/26 07:41:01;;;;;;;6.63;3.20;;;;;;;-145.79;56.87;76783.81;5299956;28;20032;-71
2023/06/26 07:43:33;;;;;;;5.93;2.60;;;;;;;-145.79;56.70;76771.09;5300813;28;20054;-70
2023/06/26 07:46:04;;;;;;;6.20;2.80;;;;;;;-145.79;56.54;76754.16;5300521;28;20028;-71
2023/06/26 07:48:35;;;;;;;4.70;2.88;;;;;;;-145.79;55.76;76758.38;5299557;28;20029;-70
2023/06/26 07:51:07;;;;;;;10.32;2.58;;;;;;;-145.79;55.58;76773.22;5300541;28;20428;-71
2023/06/26 07:53:38;;;;;;;5.40;2.53;;;;;;;-145.79;54.51;76769.00;5301150;28;20024;-71
2023/06/26 07:56:10;;;;;;;41.05;37.13;;;;;;;-145.79;54.36;76754.16;5299678;28;20051;-70
2023/06/26 07:58:41;;;;;;;6.78;3.83;;;;;;;-145.79;53.99;76745.69;5300358;28;20028;-69
2023/06/26 08:01:13;;;;;;;7.68;2.53;;;;;;;-145.79;52.79;76732.97;5299917;28;20552;-69
2023/06/26 08:03:44;;;;;;;3.92;2.60;;;;;;;-145.79;52.65;76718.13;5299562;28;20029;-71
2023/06/26 08:06:16;;;;;;;6.03;2.08;;;;;;;-145.79;51.77;76737.19;5300234;28;20035;-71
2023/06/26 08:08:47;;;;;;;4.00;2.22;;;;;;;-145.79;51.31;76707.53;5299606;28;20028;-69
2023/06/26 08:11:18;;;;;;;4.22;2.00;;;;;;;-145.79;51.23;76690.56;5312229;28;20032;-69
2023/06/26 08:13:50;;;;;;;4.60;2.30;;;;;;;-145.79;50.30;76694.81;5318541;28;20479;-70
2023/06/26 08:16:21;;;;;;;5.03;1.65;;;;;;;-145.79;46.91;76743.56;5299259;28;20082;-70
2023/06/26 08:18:52;;;;;;;3.78;1.70;;;;;;;-145.79;47.43;76785.94;5300097;28;20028;-70
2023/06/26 08:21:24;;;;;;;4.80;1.63;;;;;;;-145.79;47.95;76811.38;5304446;28;20048;-70
2023/06/26 08:23:55;;;;;;;3.42;2.17;;;;;;;-145.79;48.02;76792.31;5338602;28;20051;-70
2023/06/26 08:26:26;;;;;;;4.05;2.22;;;;;;;-145.79;47.61;76771.09;5341899;28;20096;-70
2023/06/26 08:28:58;;;;;;;5.20;1.67;;;;;;;-145.79;48.33;76756.28;5324014;28;20026;-70
2023/06/26 08:31:29;;;;;;;4.78;1.98;;;;;;;-145.79;48.03;76739.31;5319952;28;20063;-70
2023/06/26 08:34:05;;;;;;;3.60;1.80;;;;;;;-145.79;47.71;76732.97;5310980;28;20024;-70
2023/06/26 08:36:36;;;;;;;8.82;2.67;;;;;;;-145.79;47.91;76730.84;5305540;28;20052;-70
2023/06/26 08:39:08;;;;;;;4.78;1.90;;;;;;;-145.79;48.10;76722.34;5306534;28;20466;-70
2023/06/26 08:41:39;;;;;;;8.80;1.92;;;;;;;-145.79;48.32;76724.47;5306445;28;20389;-70
2023/06/26 08:44:11;;;;;;;4.65;2.08;;;;;;;-145.79;47.14;76694.81;5306407;28;20032;-70
2023/06/26 08:46:43;;;;;;;4.63;1.60;;;;;;;-145.79;46.70;76709.66;5306776;28;20051;-71
2023/06/26 08:49:20;;;;;;;3.88;1.60;;;;;;;-145.79;47.05;76699.06;5306309;28;20024;-70
2023/06/26 08:52:06;;;;;;;4.13;1.73;;;;;;;-145.79;47.38;76677.84;5305651;28;20506;-70
2023/06/26 08:54:45;;;;;;;2.97;1.83;;;;;;;-145.79;47.52;76669.38;5306104;28;20047;-70
2023/06/26 08:57:19;;;;;;;4.95;1.50;;;;;;;-145.79;47.14;76711.75;5305975;28;20024;-70
2023/06/26 08:59:50;;;;;;;5.63;2.22;;;;;;;-145.79;45.58;76724.47;5305479;28;20383;-70
2023/06/26 09:02:22;;;;;;;5.28;2.22;;;;;;;-145.79;45.41;76707.53;5319066;28;20072;-70
2023/06/26 09:04:53;;;;;;;3.47;1.95;;;;;;;-145.79;43.08;76720.25;5326622;28;20024;-70
2023/06/26 09:07:25;;;;;;;4.22;1.25;;;;;;;-145.79;43.28;76690.56;5327134;28;20016;-70
2023/06/26 09:09:56;;;;;;;1.88;1.17;;;;;;;-145.79;43.43;76690.56;5326983;28;20016;-70
2023/06/26 09:12:28;;;;;;;3.15;1.80;;;;;;;-145.79;43.78;76705.41;5326463;28;20056;-70
2023/06/26 09:15:02;;;;;;;3.28;1.95;;;;;;;-145.79;44.23;76686.34;5314628;28;20027;-71
2023/06/26 09:17:40;;;;;;;4.45;1.50;;;;;;;-145.79;44.48;76677.84;5305802;28;20028;-70
2023/06/26 09:20:14;;;;;;;3.83;1.70;;;;;;;-145.79;44.47;76665.16;5305526;28;20418;-70
2023/06/26 09:22:48;;;;;;;3.33;1.55;;;;;;;-145.79;44.44;76692.69;5305555;28;20060;-70
2023/06/26 09:25:22;;;;;;;6.60;1.50;;;;;;;-145.79;43.22;76673.63;5305683;28;20036;-70
2023/06/26 09:27:53;;;;;;;4.43;2.10;;;;;;;-145.79;42.90;76656.66;5304796;28;20433;-70
2023/06/26 09:30:25;;;;;;;3.70;1.30;;;;;;;-145.79;42.61;76673.63;5305909;28;20031;-70
2023/06/26 09:32:57;;;;;;;3.03;1.30;;;;;;;-145.79;42.40;76671.50;5304474;28;20020;-70
2023/06/26 09:35:28;;;;;;;4.05;1.73;;;;;;;-145.79;42.12;76677.84;5306154;28;20057;-70
2023/06/26 09:37:59;;;;;;;3.80;1.10;;;;;;;-145.79;42.17;76690.56;5305406;28;20032;-71
2023/06/26 09:40:31;;;;;;;3.47;1.58;;;;;;;-145.79;42.34;76671.50;5304814;28;20035;-71
2023/06/26 09:43:06;;;;;;;17.83;4.90;;;;;;;-145.79;42.47;76703.28;5304937;28;20502;-70
2023/06/26 09:45:39;;;;;;;3.88;2.05;;;;;;;-145.79;41.04;76716.00;5304075;28;20059;-70
2023/06/26 09:48:14;;;;;;;3.88;1.73;;;;;;;-145.79;41.56;76735.06;5304474;28;20352;-70
2023/06/26 09:50:45;;;;;;;5.37;1.67;;;;;;;-145.79;41.70;76724.47;5305264;28;20031;-70
2023/06/26 09:53:18;;;;;;;4.68;1.75;;;;;;;-145.79;41.62;76686.34;5317108;28;20352;-70
2023/06/26 09:55:49;;;;;;;4.93;1.45;;;;;;;-145.79;40.57;76699.06;5325395;28;20031;-70
2023/06/26 09:58:23;;;;;;;6.28;1.88;;;;;;;-145.79;40.75;76701.16;5326341;28;20016;-71
2023/06/26 10:00:54;;;;;;;3.10;1.20;;;;;;;-145.79;40.37;76667.25;5326357;28;20042;-70
2023/06/26 10:03:26;;;;;;;3.75;1.60;;;;;;;-145.79;40.40;76673.63;5325356;28;20015;-70
2023/06/26 10:05:58;;;;;;;3.67;1.15;;;;;;;-145.79;39.44;76677.84;5326014;28;20030;-70
2023/06/26 10:08:30;;;;;;;3.85;1.33;;;;;;;-145.79;36.72;76665.16;5325139;28;20110;-70
2023/06/26 10:11:01;;;;;;;2.30;1.00;;;;;;;-145.79;37.13;76656.66;5325468;28;20119;-70
2023/06/26 10:13:39;;;;;;;1.90;1.25;;;;;;;-145.79;37.13;76648.19;5325672;28;20053;-71
2023/06/26 10:16:11;;;;;;;1.98;1.10;;;;;;;-145.79;37.92;76726.59;5325102;28;20386;-73
2023/06/26 10:18:43;;;;;;;3.80;1.20;;;;;;;-145.79;37.69;76699.06;5325514;28;20027;-73
2023/06/26 10:21:15;;;;;;;2.92;1.67;;;;;;;-145.79;37.55;76652.44;5325434;28;20047;-71
2023/06/26 10:23:47;;;;;;;2.42;1.25;;;;;;;-145.79;37.22;76643.94;5324884;28;20040;-70
2023/06/26 10:26:20;;;;;;;1.77;1.10;;;;;;;-145.79;37.58;76635.47;5321544;28;20051;-70
2023/06/26 10:28:54;;;;;;;1.48;1.23;;;;;;;-145.79;36.93;76669.38;5304387;28;20032;-70
2023/06/26 10:31:28;;;;;;;4.60;1.23;;;;;;;-145.79;37.95;76675.75;5303476;28;20031;-70
2023/06/26 10:34:00;;;;;;;5.72;4.90;;;;;;;-145.79;38.20;76673.63;5304444;28;20020;-70
2023/06/26 10:36:32;;;;;;;6.97;4.68;;;;;;;-145.79;38.54;76688.44;5303551;28;20073;-71
2023/06/26 10:39:05;;;;;;;3.10;1.33;;;;;;;-145.79;38.09;76690.56;5304121;28;20027;-70
2023/06/26 10:41:39;;;;;;;1.58;1.20;;;;;;;-145.79;38.42;76726.59;5304226;28;20024;-70
2023/06/26 10:44:16;;;;;;;6.40;1.70;;;;;;;-145.79;38.22;76716.00;5314695;28;20464;-70
2023/06/26 10:46:50;;;;;;;4.70;1.20;;;;;;;-145.79;38.09;76762.63;5325569;28;20115;-70
2023/06/26 10:49:30;;;;;;;3.55;1.20;;;;;;;-145.79;37.54;76728.72;5324820;28;20054;-70
2023/06/26 10:52:02;;;;;;;2.00;1.00;;;;;;;-145.79;36.24;76743.56;5323537;28;20391;-70
2023/06/26 10:54:34;;;;;;;2.47;1.33;;;;;;;-145.79;36.07;76737.19;5325287;28;20444;-70
2023/06/26 10:57:07;;;;;;;5.75;1.98;;;;;;;-145.79;36.35;76726.59;5324886;28;20102;-69
2023/06/26 10:59:40;;;;;;;4.10;1.92;;;;;;;-145.79;36.37;76699.06;5324169;28;20052;-69
2023/06/26 11:02:12;;;;;;;4.53;1.75;;;;;;;-145.79;36.92;76711.75;5324181;28;20031;-69
2023/06/26 11:04:52;;;;;;;2.45;1.50;;;;;;;-145.79;35.65;76737.19;5324242;28;20027;-69
2023/06/26 11:07:25;;;;;;;1.38;0.93;;;;;;;-145.79;36.34;76737.19;5325245;28;20539;-69
2023/06/26 11:10:01;;;;;;;2.15;1.17;;;;;;;-145.79;37.22;76690.56;5324990;28;20030;-69
2023/06/26 11:12:39;;;;;;;;;;;;;;;-145.79;36.35;76669.38;5324655;28;20111;-70
2023/06/26 11:15:13;;;;;;;4.82;1.30;;;;;;;-145.79;37.19;76658.78;5310542;28;19916;-70
2023/06/26 11:17:45;;;;;;;4.05;1.90;;;;;;;-145.79;35.12;76699.06;5304591;28;20404;-70
2023/06/26 11:20:17;;;;;;;4.07;1.80;;;;;;;-145.79;35.17;76711.75;5302959;28;20050;-69
2023/06/26 11:22:52;;;;;;;3.70;1.35;;;;;;;-145.79;34.85;76682.09;5303652;28;20094;-70
2023/06/26 11:25:23;;;;;;;4.45;1.63;;;;;;;-145.79;35.31;76690.56;5302536;28;20034;-70
2023/06/26 11:27:55;;;;;;;2.13;1.10;;;;;;;-145.79;35.12;76665.16;5303885;28;20020;-70
2023/06/26 11:30:27;;;;;;;4.28;1.90;;;;;;;-145.79;34.90;76675.75;5303472;28;20012;-70
2023/06/26 11:33:09;;;;;;;5.38;1.50;;;;;;;-145.79;35.57;76663.03;5303033;28;20149;-70
2023/06/26 11:35:41;;;;;;;1.50;1.13;;;;;;;-145.79;35.80;76635.47;5318870;28;20016;-70
2023/06/26 11:38:12;;;;;;;3.22;1.30;;;;;;;-145.79;35.98;76639.72;5325030;28;20363;-70
2023/06/26 11:40:44;;;;;;;3.70;1.38;;;;;;;-145.79;36.66;76641.84;5324073;28;20034;-69
2023/06/26 11:43:18;;;;;;;4.15;1.42;;;;;;;-145.79;36.98;76643.94;5324933;28;20055;-70
2023/06/26 11:45:49;;;;;;;2.53;1.30;;;;;;;-145.79;36.77;76648.19;5324420;28;20028;-70
2023/06/26 11:48:21;;;;;;;5.20;1.60;;;;;;;-145.79;36.07;76684.22;5323917;28;20105;-70
2023/06/26 11:50:52;;;;;;;7.15;1.63;;;;;;;-145.79;35.91;76694.81;5323847;28;20463;-70
2023/06/26 11:53:23;;;;;;;2.78;1.52;;;;;;;-145.79;35.56;76690.56;5324715;28;20038;-72
2023/06/26 11:55:55;;;;;;;6.03;1.75;;;;;;;-145.79;35.99;76701.16;5323846;28;20475;-70
2023/06/26 11:58:26;;;;;;;2.58;1.40;;;;;;;-145.79;35.07;76705.41;5324545;28;20055;-71
2023/06/26 12:01:00;;;;;;;1.58;1.08;;;;;;;-145.79;35.03;76673.63;5323440;28;20031;-71
2023/06/26 12:03:34;;;;;;;2.65;1.40;;;;;;;-145.79;34.81;76682.09;5324400;28;20020;-71
2023/06/26 12:06:06;;;;;;;2.90;1.50;;;;;;;-145.79;35.09;76656.66;5305923;28;20027;-71
2023/06/26 12:08:38;;;;;;;2.33;1.10;;;;;;;-145.79;34.18;76639.72;5304620;28;20069;-71
2023/06/26 12:11:13;;;;;;;2.53;1.23;;;;;;;-145.79;34.05;76624.88;5307000;28;20032;-71
2023/06/26 12:13:46;;;;;;;3.05;1.60;;;;;;;-145.79;35.35;76629.13;5307477;28;20027;-70
2023/06/26 12:16:18;;;;;;;3.05;1.38;;;;;;;-145.79;36.25;76677.84;5306356;28;20028;-71
2023/06/26 12:18:50;;;;;;;4.22;1.42;;;;;;;-145.79;36.09;76660.91;5307080;28;20021;-69
2023/06/26 12:21:48;;;;;;;3.63;1.75;;;;;;;-145.79;35.87;76684.22;5307056;28;20047;-71
2023/06/26 12:24:23;;;;;;;2.42;1.20;;;;;;;-145.79;36.00;76665.16;5306624;28;20040;-68
2023/06/26 12:26:56;;;;;;;7.93;6.85;;;;;;;-145.79;36.35;76648.19;5324275;28;20102;-69
2023/06/26 12:29:33;;;;;;;4.70;2.20;;;;;;;-145.79;36.67;76627.00;5327797;28;20035;-69
2023/06/26 12:32:08;;;;;;;3.30;2.22;;;;;;;-145.79;36.48;76597.31;5327934;28;20027;-68
2023/06/26 12:34:40;;;;;;;3.00;2.05;;;;;;;-145.79;36.18;76607.91;5328256;28;20463;-71
2023/06/26 12:37:13;;;;;;;4.78;1.65;;;;;;;-145.79;36.23;76622.75;5327138;28;20015;-71
2023/06/26 12:39:56;;;;;;;2.80;1.30;;;;;;;-145.79;35.65;76652.44;5328090;28;20039;-71
2023/06/26 12:42:28;;;;;;;2.10;1.48;;;;;;;-145.79;35.55;76694.81;5326837;28;20108;-70
2023/06/26 12:45:10;;;;;;;3.70;1.42;;;;;;;-145.79;35.40;76639.72;5326925;28;20060;-69
2023/06/26 12:47:42;;;;;;;1.75;1.17;;;;;;;-145.79;34.37;76584.59;5327621;28;20073;-72
2023/06/26 12:50:13;;;;;;;3.53;1.50;;;;;;;-145.79;32.96;76593.09;5327038;28;20465;-69
2023/06/26 12:52:44;;;;;;;6.25;1.30;;;;;;;-145.79;33.13;76597.31;5327394;28;20024;-69
2023/06/26 12:55:16;;;;;;;2.72;1.40;;;;;;;-145.79;33.52;76571.91;5311300;28;20079;-69
2023/06/26 12:57:47;;;;;;;2.30;1.02;;;;;;;-145.79;32.73;76559.19;5305313;28;20111;-69
2023/06/26 13:00:19;;;;;;;3.88;0.90;;;;;;;-145.79;33.22;76552.81;5307083;28;20440;-69
2023/06/26 13:02:50;;;;;;;2.70;1.60;;;;;;;-145.79;34.22;76550.69;5305716;28;20028;-69
2023/06/26 13:05:21;;;;;;;3.53;1.58;;;;;;;-145.79;34.61;76561.28;5305115;28;20074;-69
2023/06/26 13:07:53;;;;;;;5.10;1.30;;;;;;;-145.79;34.84;76563.41;5305997;28;20020;-70
2023/06/26 13:10:27;;;;;;;2.15;1.20;;;;;;;-145.79;33.82;76584.59;5306539;28;20089;-70
2023/06/26 13:12:58;;;;;;;1.88;1.17;;;;;;;-145.79;34.15;76584.59;5305203;28;20443;-70
2023/06/26 13:15:29;;;;;;;3.00;1.17;;;;;;;-145.79;33.93;76624.88;5322102;28;20020;-71
2023/06/26 13:18:01;;;;;;;2.97;1.15;;;;;;;-145.79;34.81;76658.78;5325291;28;20049;-69
2023/06/26 13:20:32;;;;;;;1.95;1.30;;;;;;;-145.79;34.95;76648.19;5327243;28;20051;-69
2023/06/26 13:23:03;;;;;;;4.47;1.70;;;;;;;-145.79;35.10;76571.91;5326593;28;20055;-68
2023/06/26 13:25:35;;;;;;;2.13;1.48;;;;;;;-145.79;35.06;76542.22;5325997;28;20024;-70
2023/06/26 13:28:06;;;;;;;3.03;1.40;;;;;;;-145.79;35.12;76580.38;5326722;28;20531;-70
2023/06/26 13:30:37;;;;;;;4.30;1.60;;;;;;;-145.79;34.99;76580.38;5327283;28;20111;-69
2023/06/26 13:33:10;;;;;;;4.10;1.52;;;;;;;-145.79;34.81;76607.91;5325182;28;20338;-70
2023/06/26 13:35:42;;;;;;;13.27;4.03;;;;;;;-145.79;35.34;76650.31;5326841;28;20019;-70
2023/06/26 13:38:16;;;;;;;4.78;1.38;;;;;;;-145.79;35.09;76616.41;5326641;28;20020;-69
2023/06/26 13:40:47;;;;;;;10.43;1.75;;;;;;;-145.79;34.67;76567.66;5325646;28;20497;-69
2023/06/26 13:43:21;;;;;;;9.48;1.50;;;;;;;-145.79;34.72;76576.13;5322062;28;20028;-70
2023/06/26 13:45:52;;;;;;;4.70;1.20;;;;;;;-145.79;35.21;76607.91;5305109;28;20024;-69
2023/06/26 13:48:24;;;;;;;5.35;1.70;;;;;;;-145.79;35.09;76622.75;5304285;28;20478;-69
2023/06/26 13:50:56;;;;;;;27.23;24.58;;;;;;;-145.79;35.47;76654.53;5305752;28;20467;-70
2023/06/26 13:53:27;;;;;;;4.22;1.55;;;;;;;-145.79;35.20;76567.66;5303911;28;20024;-73
2023/06/26 13:55:58;;;;;;;5.22;1.85;;;;;;;-145.79;35.28;76610.03;5304826;28;20035;-70
2023/06/26 13:58:32;;;;;;;5.55;3.08;;;;;;;-145.79;35.34;76584.59;5305087;28;20498;-72
2023/06/26 14:01:06;;;;;;;4.00;1.63;;;;;;;-145.79;35.50;76559.19;5304484;28;20491;-71
2023/06/26 14:03:37;;;;;;;3.87;1.17;;;;;;;-145.79;35.13;76584.59;5304823;28;20032;-70
2023/06/26 14:06:09;;;;;;;1.67;1.00;;;;;;;-145.79;34.75;76588.84;5304896;28;20031;-69
2023/06/26 14:08:40;;;;;;;2.58;1.92;;;;;;;-145.79;34.83;76597.31;5318703;28;20032;-68
2023/06/26 14:11:11;;;;;;;3.03;1.50;;;;;;;-145.79;34.76;76601.56;5325963;28;20568;-69
2023/06/26 14:13:43;;;;;;;3.28;1.40;;;;;;;-145.79;35.00;76624.88;5325617;28;20019;-69
2023/06/26 14:16:20;;;;;;;4.78;1.70;;;;;;;-145.79;35.26;76641.84;5324846;28;20019;-69
2023/06/26 14:18:54;;;;;;;3.92;1.85;;;;;;;-145.79;35.25;76652.44;5325883;28;20020;-69
2023/06/26 14:21:27;;;;;;;2.97;1.70;;;;;;;-145.79;35.27;76663.03;5324637;28;20047;-69
2023/06/26 14:23:59;;;;;;;2.90;1.33;;;;;;;-145.79;35.18;76671.50;5323909;28;20076;-69
2023/06/26 14:26:32;;;;;;;1.60;1.23;;;;;;;-145.79;35.00;76684.22;5304132;28;20016;-68
2023/06/26 14:29:03;;;;;;;2.88;1.30;;;;;;;-145.79;34.92;76686.34;5303079;28;20055;-69
2023/06/26 14:31:34;;;;;;;3.15;1.50;;;;;;;-145.79;35.15;76677.84;5304056;28;20052;-69
2023/06/26 14:34:06;;;;;;;3.20;1.48;;;;;;;-145.79;35.61;76701.16;5304144;28;20047;-69
2023/06/26 14:36:37;;;;;;;9.93;8.95;;;;;;;-145.79;35.51;76688.44;5303520;28;20027;-69
2023/06/26 14:39:11;;;;;;;2.55;1.50;;;;;;;-145.79;35.61;76656.66;5304113;28;20027;-70
2023/06/26 14:41:43;;;;;;;3.38;1.50;;;;;;;-145.79;35.28;76677.84;5311619;28;20062;-71
2023/06/26 14:44:15;;;;;;;2.55;1.45;;;;;;;-145.79;35.10;76688.44;5324487;28;20452;-70
2023/06/26 14:46:46;;;;;;;2.67;1.42;;;;;;;-145.79;35.31;76688.44;5325447;28;20016;-70
2023/06/26 14:49:19;;;;;;;2.33;1.23;;;;;;;-145.79;35.51;76711.75;5324903;28;20046;-69
2023/06/26 14:51:50;;;;;;;1.98;1.25;;;;;;;-145.79;35.45;76749.91;5324939;28;20027;-69
2023/06/26 14:54:21;;;;;;;3.00;1.50;;;;;;;-145.79;35.65;76771.09;5325354;28;20042;-71
2023/06/26 14:56:53;;;;;;;3.50;1.45;;;;;;;-145.79;35.79;76724.47;5323990;28;20046;-68
2023/06/26 14:59:24;;;;;;;4.82;1.65;;;;;;;-145.79;35.44;76694.81;5324153;28;20396;-71
2023/06/26 15:01:55;;;;;;;3.05;1.40;;;;;;;-145.79;35.45;76716.00;5325272;28;20057;-71
2023/06/26 15:04:27;;;;;;;3.38;1.20;;;;;;;-145.79;35.47;76716.00;5324245;28;20104;-71
2023/06/26 15:06:58;;;;;;;10.05;7.00;;;;;;;-145.79;35.04;76696.94;5325053;28;20381;-71
2023/06/26 15:09:31;;;;;;;5.10;2.10;;;;;;;-145.79;35.76;76735.06;5324979;28;20031;-71
2023/06/26 15:12:03;;;;;;;4.10;1.52;;;;;;;-145.79;35.95;76754.16;5323945;28;20020;-67
2023/06/26 15:14:34;;;;;;;2.60;1.40;;;;;;;-145.79;36.13;76764.75;5315949;28;20043;-67
2023/06/26 15:17:06;;;;;;;2.10;1.25;;;;;;;-145.79;36.13;76777.47;5303975;28;20103;-67
2023/06/26 15:19:37;;;;;;;3.90;1.45;;;;;;;-145.79;35.87;76771.09;5302917;28;20038;-68
2023/06/26 15:22:09;;;;;;;17.00;15.50;;;;;;;-145.79;36.01;76760.50;5303860;28;20459;-69
2023/06/26 15:24:40;;;;;;;3.72;1.60;;;;;;;-145.79;35.40;76764.75;5303144;28;20020;-68
2023/06/26 15:27:13;;;;;;;2.30;1.60;;;;;;;-145.79;35.06;76760.50;5303132;28;20093;-67
2023/06/26 15:29:44;;;;;;;2.13;1.17;;;;;;;-145.79;35.07;76762.63;5303276;28;20109;-68
2023/06/26 15:32:16;;;;;;;3.08;1.25;;;;;;;-145.79;35.45;76752.03;5303407;28;20028;-70
2023/06/26 15:34:47;;;;;;;1.63;1.10;;;;;;;-145.79;35.11;76760.50;5303606;28;20028;-70
2023/06/26 15:37:19;;;;;;;2.80;1.63;;;;;;;-145.79;34.82;76758.38;5303110;28;20028;-71
2023/06/26 15:39:50;;;;;;;21.85;19.95;;;;;;;-145.79;35.35;76754.16;5302952;28;20100;-71
2023/06/26 15:42:26;;;;;;;8.07;4.85;;;;;;;-145.79;35.17;76749.91;5303323;28;20024;-72
2023/06/26 15:44:58;;;;;;;2.20;1.33;;;;;;;-145.79;34.78;76775.34;5307285;28;20032;-71
2023/06/26 15:47:29;;;;;;;2.63;1.50;;;;;;;-145.79;34.53;76749.91;5306720;28;20107;-71
2023/06/26 15:50:00;;;;;;;2.47;1.40;;;;;;;-145.79;34.52;76773.22;5317463;28;20425;-71
2023/06/26 15:52:32;;;;;;;4.22;1.90;;;;;;;-145.79;34.70;76758.38;5328571;28;20401;-71
2023/06/26 15:55:04;;;;;;;4.50;1.90;;;;;;;-145.79;34.68;76743.56;5327975;28;20031;-73
2023/06/26 15:57:36;;;;;;;3.88;1.30;;;;;;;-145.79;33.76;76762.63;5328785;28;20099;-70
2023/06/26 16:00:08;;;;;;;3.47;1.00;;;;;;;-145.79;33.91;76730.84;5327939;28;20371;-71
2023/06/26 16:02:39;;;;;;;3.17;1.20;;;;;;;-145.79;34.27;76758.38;5328219;28;20024;-71
2023/06/26 16:05:11;;;;;;;4.45;2.58;;;;;;;-145.79;34.64;76760.50;5314435;28;20111;-74
2023/06/26 16:07:43;;;;;;;1.95;1.30;;;;;;;-145.79;34.78;76747.78;5307331;28;20468;-71
2023/06/26 16:10:14;;;;;;;2.95;1.17;;;;;;;-145.79;34.18;76754.16;5306427;28;20074;-70
2023/06/26 16:12:45;;;;;;;2.88;2.10;;;;;;;-145.79;34.46;76769.00;5306730;28;20473;-70
2023/06/26 16:15:17;;;;;;;3.40;1.27;;;;;;;-145.79;34.85;76779.59;5306426;28;20073;-71
2023/06/26 16:17:48;;;;;;;3.78;1.38;;;;;;;-145.79;34.83;76747.78;5307165;28;20494;-70
2023/06/26 16:20:19;;;;;;;3.28;1.10;;;;;;;-145.79;34.44;76724.47;5307285;28;20097;-70
2023/06/26 16:22:51;;;;;;;3.80;1.63;;;;;;;-145.79;33.65;76720.25;5306047;28;20040;-71
2023/06/26 16:25:22;;;;;;;1.20;1.10;;;;;;;-145.79;33.76;76716.00;5328181;28;20526;-69
2023/06/26 16:27:53;;;;;;;2.42;1.10;;;;;;;-145.79;33.52;76716.00;5327278;28;20052;-70
2023/06/26 16:30:25;;;;;;;3.63;3.28;;;;;;;-145.79;33.17;76692.69;5328145;28;20035;-70
2023/06/26 16:32:58;;;;;;;1.52;1.10;;;;;;;-145.79;33.21;76694.81;5328075;28;20028;-70
2023/06/26 16:35:34;;;;;;;3.22;1.55;;;;;;;-145.79;33.36;76718.13;5327253;28;20069;-70
2023/06/26 16:38:09;;;;;;;2.40;1.10;;;;;;;-145.79;33.71;76745.69;5328137;28;20041;-70
2023/06/26 16:40:40;;;;;;;1.98;1.17;;;;;;;-145.79;33.53;76713.88;5327185;28;20055;-71
2023/06/26 16:43:12;;;;;;;6.18;5.57;;;;;;;-145.79;33.77;76713.88;5326941;28;20510;-70
2023/06/26 16:45:43;;;;;;;2.58;1.30;;;;;;;-145.79;33.31;76652.44;5327397;28;20063;-70
2023/06/26 16:48:14;;;;;;;3.90;1.55;;;;;;;-145.79;33.35;76624.88;5327344;28;20028;-70
2023/06/26 16:50:46;;;;;;;1.30;1.20;;;;;;;-145.79;32.95;76622.75;5327273;28;20478;-71
2023/06/26 16:53:18;;;;;;;1.45;0.90;;;;;;;-145.79;32.39;76635.47;5327093;28;20031;-71
